sensor_id;sensor_type;location;lat;lon;timestamp;P1;durP1;ratioP1;P2;durP2;ratioP2
69917;SDS011;57203;42.672;23.334;2023-09-19T00:00:21;6.9;;;4.1;;
69917;SDS011;57203;42.672;23.334;2023-09-19T00:01:21;5.2;;;3.5;;
69917;SDS011;57203;42.672;23.334;2023-09-19T00:02:21;4.3;;;3.2;;
69917;SDS011;57203;42.672;23.334;2023-09-19T00:03:21;4.3;;;3.7;;
69917;SDS011;57203;42.672;23.334;2023-09-19T00:04:21;5.2;;;3.2;;
69917;SDS011;57203;42.672;23.334;2023-09-19T00:05:22;5.5;;;2.9;;
69917;SDS011;57203;42.672;23.334;2023-09-19T00:07:22;4.7;;;3.3;;
69917;SDS011;57203;42.672;23.334;2023-09-19T00:08:22;3.7;;;3.8;;
69917;SDS011;57203;42.672;23.334;2023-09-19T00:09:23;5.9;;;3.2;;
69917;SDS011;57203;42.672;23.334;2023-09-19T00:10:23;3.7;;;3.3;;
69917;SDS011;57203;42.672;23.334;2023-09-19T00:11:23;4.5;;;3.0;;
69917;SDS011;57203;42.672;23.334;2023-09-19T00:12:23;3.8;;;3.1;;
69917;SDS011;57203;42.672;23.334;2023-09-19T00:13:24;4.4;;;3.6;;
69917;SDS011;57203;42.672;23.334;2023-09-19T00:14:24;4.9;;;3.4;;
69917;SDS011;57203;42.672;23.334;2023-09-19T00:15:24;6.4;;;3.1;;
69917;SDS011;57203;42.672;23.334;2023-09-19T00:16:24;4.2;;;3.5;;
69917;SDS011;57203;42.672;23.334;2023-09-19T00:17:24;4.2;;;3.2;;
69917;SDS011;57203;42.672;23.334;2023-09-19T00:18:25;3.9;;;3.3;;
69917;SDS011;57203;42.672;23.334;2023-09-19T00:19:25;5.4;;;3.5;;
69917;SDS011;57203;42.672;23.334;2023-09-19T00:20:25;3.9;;;3.1;;
69917;SDS011;57203;42.672;23.334;2023-09-19T00:21:25;3.8;;;3.2;;
69917;SDS011;57203;42.672;23.334;2023-09-19T00:22:26;4.2;;;3.1;;
69917;SDS011;57203;42.672;23.334;2023-09-19T00:23:26;4.2;;;3.3;;
69917;SDS011;57203;42.672;23.334;2023-09-19T00:24:26;5.1;;;3.6;;
69917;SDS011;57203;42.672;23.334;2023-09-19T00:25:26;5.1;;;3.3;;
69917;SDS011;57203;42.672;23.334;2023-09-19T00:27:27;4.5;;;3.5;;
69917;SDS011;57203;42.672;23.334;2023-09-19T00:28:27;4.9;;;3.0;;
69917;SDS011;57203;42.672;23.334;2023-09-19T00:29:27;5.4;;;3.7;;
69917;SDS011;57203;42.672;23.334;2023-09-19T00:30:27;5.7;;;3.3;;
69917;SDS011;57203;42.672;23.334;2023-09-19T00:31:28;3.7;;;3.2;;
69917;SDS011;57203;42.672;23.334;2023-09-19T00:32:28;4.0;;;3.7;;
69917;SDS011;57203;42.672;23.334;2023-09-19T00:34:28;5.7;;;3.5;;
69917;SDS011;57203;42.672;23.334;2023-09-19T00:35:28;5.6;;;3.3;;
69917;SDS011;57203;42.672;23.334;2023-09-19T00:36:29;4.2;;;3.7;;
69917;SDS011;57203;42.672;23.334;2023-09-19T00:37:29;5.2;;;3.2;;
69917;SDS011;57203;42.672;23.334;2023-09-19T00:38:29;3.7;;;3.3;;
69917;SDS011;57203;42.672;23.334;2023-09-19T00:39:29;5.0;;;3.5;;
69917;SDS011;57203;42.672;23.334;2023-09-19T00:40:30;5.0;;;3.3;;
69917;SDS011;57203;42.672;23.334;2023-09-19T00:41:30;4.1;;;3.2;;
69917;SDS011;57203;42.672;23.334;2023-09-19T00:42:30;3.7;;;3.4;;
69917;SDS011;57203;42.672;23.334;2023-09-19T00:43:30;4.4;;;3.6;;
69917;SDS011;57203;42.672;23.334;2023-09-19T00:44:30;3.7;;;3.3;;
69917;SDS011;57203;42.672;23.334;2023-09-19T00:47:31;4.0;;;3.4;;
69917;SDS011;57203;42.672;23.334;2023-09-19T00:48:31;4.0;;;3.1;;
69917;SDS011;57203;42.672;23.334;2023-09-19T00:49:32;3.8;;;3.5;;
69917;SDS011;57203;42.672;23.334;2023-09-19T00:50:32;5.6;;;3.4;;
69917;SDS011;57203;42.672;23.334;2023-09-19T00:51:32;5.7;;;3.7;;
69917;SDS011;57203;42.672;23.334;2023-09-19T00:52:33;5.8;;;4.1;;
69917;SDS011;57203;42.672;23.334;2023-09-19T00:53:33;5.8;;;3.3;;
69917;SDS011;57203;42.672;23.334;2023-09-19T00:54:33;4.6;;;3.7;;
69917;SDS011;57203;42.672;23.334;2023-09-19T00:55:33;4.8;;;4.0;;
69917;SDS011;57203;42.672;23.334;2023-09-19T00:56:33;5.3;;;3.8;;
69917;SDS011;57203;42.672;23.334;2023-09-19T00:57:33;5.7;;;3.6;;
69917;SDS011;57203;42.672;23.334;2023-09-19T00:58:34;5.9;;;3.8;;
69917;SDS011;57203;42.672;23.334;2023-09-19T00:59:34;5.1;;;3.4;;
69917;SDS011;57203;42.672;23.334;2023-09-19T01:00:34;4.4;;;3.6;;
69917;SDS011;57203;42.672;23.334;2023-09-19T01:02:35;4.9;;;3.7;;
69917;SDS011;57203;42.672;23.334;2023-09-19T01:05:35;6.6;;;3.1;;
69917;SDS011;57203;42.672;23.334;2023-09-19T01:06:36;3.7;;;3.6;;
69917;SDS011;57203;42.672;23.334;2023-09-19T01:07:36;4.4;;;3.8;;
69917;SDS011;57203;42.672;23.334;2023-09-19T01:08:36;6.3;;;3.6;;
69917;SDS011;57203;42.672;23.334;2023-09-19T01:09:36;4.3;;;3.2;;
69917;SDS011;57203;42.672;23.334;2023-09-19T01:10:37;4.9;;;3.4;;
69917;SDS011;57203;42.672;23.334;2023-09-19T01:11:38;4.4;;;4.0;;
69917;SDS011;57203;42.672;23.334;2023-09-19T01:12:47;4.4;;;3.6;;
69917;SDS011;57203;42.672;23.334;2023-09-19T01:13:40;4.8;;;3.7;;
69917;SDS011;57203;42.672;23.334;2023-09-19T01:14:39;4.5;;;3.5;;
69917;SDS011;57203;42.672;23.334;2023-09-19T01:15:40;5.8;;;3.3;;
69917;SDS011;57203;42.672;23.334;2023-09-19T01:16:40;4.3;;;3.6;;
69917;SDS011;57203;42.672;23.334;2023-09-19T01:17:41;4.7;;;3.7;;
69917;SDS011;57203;42.672;23.334;2023-09-19T01:18:40;4.5;;;3.5;;
69917;SDS011;57203;42.672;23.334;2023-09-19T01:19:45;3.9;;;3.8;;
69917;SDS011;57203;42.672;23.334;2023-09-19T01:20:39;5.2;;;3.6;;
69917;SDS011;57203;42.672;23.334;2023-09-19T01:21:42;6.6;;;3.9;;
69917;SDS011;57203;42.672;23.334;2023-09-19T01:23:46;4.4;;;3.4;;
69917;SDS011;57203;42.672;23.334;2023-09-19T01:24:52;3.8;;;4.0;;
69917;SDS011;57203;42.672;23.334;2023-09-19T01:25:49;6.8;;;3.6;;
69917;SDS011;57203;42.672;23.334;2023-09-19T01:26:47;4.9;;;3.9;;
69917;SDS011;57203;42.672;23.334;2023-09-19T01:27:47;5.1;;;4.0;;
69917;SDS011;57203;42.672;23.334;2023-09-19T01:29:42;5.7;;;4.1;;
69917;SDS011;57203;42.672;23.334;2023-09-19T01:30:43;5.7;;;3.9;;
69917;SDS011;57203;42.672;23.334;2023-09-19T01:31:42;4.9;;;3.8;;
69917;SDS011;57203;42.672;23.334;2023-09-19T01:34:43;5.6;;;3.8;;
69917;SDS011;57203;42.672;23.334;2023-09-19T01:35:42;6.1;;;4.4;;
69917;SDS011;57203;42.672;23.334;2023-09-19T01:36:42;4.2;;;3.8;;
69917;SDS011;57203;42.672;23.334;2023-09-19T01:37:43;4.2;;;3.9;;
69917;SDS011;57203;42.672;23.334;2023-09-19T01:38:43;4.7;;;4.0;;
69917;SDS011;57203;42.672;23.334;2023-09-19T01:39:43;4.6;;;4.2;;
69917;SDS011;57203;42.672;23.334;2023-09-19T01:40:44;6.3;;;4.4;;
69917;SDS011;57203;42.672;23.334;2023-09-19T01:41:48;6.3;;;4.1;;
69917;SDS011;57203;42.672;23.334;2023-09-19T01:42:45;5.7;;;4.0;;
69917;SDS011;57203;42.672;23.334;2023-09-19T01:43:44;5.4;;;4.1;;
69917;SDS011;57203;42.672;23.334;2023-09-19T01:44:48;5.9;;;4.0;;
69917;SDS011;57203;42.672;23.334;2023-09-19T01:45:46;5.9;;;3.8;;
69917;SDS011;57203;42.672;23.334;2023-09-19T01:46:45;4.9;;;4.1;;
69917;SDS011;57203;42.672;23.334;2023-09-19T01:47:47;5.6;;;4.3;;
69917;SDS011;57203;42.672;23.334;2023-09-19T01:48:46;5.1;;;4.0;;
69917;SDS011;57203;42.672;23.334;2023-09-19T01:49:50;4.9;;;4.4;;
69917;SDS011;57203;42.672;23.334;2023-09-19T01:50:55;6.9;;;4.3;;
69917;SDS011;57203;42.672;23.334;2023-09-19T01:51:50;5.0;;;4.2;;
69917;SDS011;57203;42.672;23.334;2023-09-19T01:54:48;4.9;;;4.1;;
69917;SDS011;57203;42.672;23.334;2023-09-19T01:55:47;4.9;;;4.0;;
69917;SDS011;57203;42.672;23.334;2023-09-19T01:56:48;6.7;;;4.1;;
69917;SDS011;57203;42.672;23.334;2023-09-19T01:57:49;5.4;;;4.4;;
69917;SDS011;57203;42.672;23.334;2023-09-19T01:58:48;7.1;;;4.3;;
69917;SDS011;57203;42.672;23.334;2023-09-19T01:59:50;7.1;;;4.2;;
69917;SDS011;57203;42.672;23.334;2023-09-19T02:00:48;6.2;;;4.5;;
69917;SDS011;57203;42.672;23.334;2023-09-19T02:01:48;8.2;;;4.2;;
69917;SDS011;57203;42.672;23.334;2023-09-19T02:02:48;4.8;;;4.4;;
69917;SDS011;57203;42.672;23.334;2023-09-19T02:03:49;5.2;;;4.6;;
69917;SDS011;57203;42.672;23.334;2023-09-19T02:04:49;5.8;;;4.3;;
69917;SDS011;57203;42.672;23.334;2023-09-19T02:05:49;5.1;;;4.7;;
69917;SDS011;57203;42.672;23.334;2023-09-19T02:06:49;6.1;;;4.3;;
69917;SDS011;57203;42.672;23.334;2023-09-19T02:07:49;6.5;;;4.5;;
69917;SDS011;57203;42.672;23.334;2023-09-19T02:08:50;5.1;;;4.0;;
69917;SDS011;57203;42.672;23.334;2023-09-19T02:10:50;5.8;;;4.5;;
69917;SDS011;57203;42.672;23.334;2023-09-19T02:12:51;6.4;;;4.3;;
69917;SDS011;57203;42.672;23.334;2023-09-19T02:13:51;5.4;;;4.7;;
69917;SDS011;57203;42.672;23.334;2023-09-19T02:14:51;6.9;;;4.6;;
69917;SDS011;57203;42.672;23.334;2023-09-19T02:15:51;6.9;;;4.7;;
69917;SDS011;57203;42.672;23.334;2023-09-19T02:16:51;6.1;;;4.2;;
69917;SDS011;57203;42.672;23.334;2023-09-19T02:17:52;6.8;;;5.0;;
69917;SDS011;57203;42.672;23.334;2023-09-19T02:18:52;6.7;;;4.5;;
69917;SDS011;57203;42.672;23.334;2023-09-19T02:20:52;7.4;;;5.2;;
69917;SDS011;57203;42.672;23.334;2023-09-19T02:21:53;6.3;;;4.7;;
69917;SDS011;57203;42.672;23.334;2023-09-19T02:22:53;6.3;;;4.4;;
69917;SDS011;57203;42.672;23.334;2023-09-19T02:23:53;6.4;;;4.2;;
69917;SDS011;57203;42.672;23.334;2023-09-19T02:24:53;5.6;;;4.3;;
69917;SDS011;57203;42.672;23.334;2023-09-19T02:25:53;6.3;;;4.5;;
69917;SDS011;57203;42.672;23.334;2023-09-19T02:27:54;5.7;;;4.3;;
69917;SDS011;57203;42.672;23.334;2023-09-19T02:29:54;6.4;;;4.6;;
69917;SDS011;57203;42.672;23.334;2023-09-19T02:30:54;6.2;;;4.9;;
69917;SDS011;57203;42.672;23.334;2023-09-19T02:31:55;6.2;;;4.5;;
69917;SDS011;57203;42.672;23.334;2023-09-19T02:32:55;6.8;;;4.2;;
69917;SDS011;57203;42.672;23.334;2023-09-19T02:33:55;5.4;;;4.5;;
69917;SDS011;57203;42.672;23.334;2023-09-19T02:34:55;5.1;;;4.2;;
69917;SDS011;57203;42.672;23.334;2023-09-19T02:35:56;4.8;;;4.4;;
69917;SDS011;57203;42.672;23.334;2023-09-19T02:36:56;6.7;;;4.2;;
69917;SDS011;57203;42.672;23.334;2023-09-19T02:37:56;5.5;;;4.3;;
69917;SDS011;57203;42.672;23.334;2023-09-19T02:38:56;5.5;;;4.1;;
69917;SDS011;57203;42.672;23.334;2023-09-19T02:39:57;5.0;;;4.8;;
69917;SDS011;57203;42.672;23.334;2023-09-19T02:40:57;6.1;;;4.1;;
69917;SDS011;57203;42.672;23.334;2023-09-19T02:41:57;4.9;;;4.2;;
69917;SDS011;57203;42.672;23.334;2023-09-19T02:42:57;4.9;;;4.1;;
69917;SDS011;57203;42.672;23.334;2023-09-19T02:43:57;4.9;;;4.4;;
69917;SDS011;57203;42.672;23.334;2023-09-19T02:44:58;6.4;;;4.3;;
69917;SDS011;57203;42.672;23.334;2023-09-19T02:46:58;5.9;;;4.5;;
69917;SDS011;57203;42.672;23.334;2023-09-19T02:47:58;6.9;;;4.7;;
69917;SDS011;57203;42.672;23.334;2023-09-19T02:48:58;6.2;;;5.4;;
69917;SDS011;57203;42.672;23.334;2023-09-19T02:49:59;6.4;;;5.0;;
69917;SDS011;57203;42.672;23.334;2023-09-19T02:50:59;7.2;;;4.8;;
69917;SDS011;57203;42.672;23.334;2023-09-19T02:51:59;7.6;;;5.2;;
69917;SDS011;57203;42.672;23.334;2023-09-19T02:52:59;7.6;;;5.7;;
69917;SDS011;57203;42.672;23.334;2023-09-19T02:54:00;8.7;;;5.3;;
69917;SDS011;57203;42.672;23.334;2023-09-19T02:55:00;6.4;;;5.6;;
69917;SDS011;57203;42.672;23.334;2023-09-19T02:56:00;7.1;;;5.1;;
69917;SDS011;57203;42.672;23.334;2023-09-19T02:57:00;6.4;;;5.3;;
69917;SDS011;57203;42.672;23.334;2023-09-19T02:59:01;6.9;;;5.6;;
69917;SDS011;57203;42.672;23.334;2023-09-19T03:00:01;7.0;;;5.7;;
69917;SDS011;57203;42.672;23.334;2023-09-19T03:01:07;7.6;;;5.5;;
69917;SDS011;57203;42.672;23.334;2023-09-19T03:02:01;6.5;;;5.7;;
69917;SDS011;57203;42.672;23.334;2023-09-19T03:03:02;7.7;;;6.0;;
69917;SDS011;57203;42.672;23.334;2023-09-19T03:04:02;9.0;;;5.5;;
69917;SDS011;57203;42.672;23.334;2023-09-19T03:05:02;7.2;;;5.9;;
69917;SDS011;57203;42.672;23.334;2023-09-19T03:06:02;7.6;;;5.8;;
69917;SDS011;57203;42.672;23.334;2023-09-19T03:08:03;7.2;;;5.7;;
69917;SDS011;57203;42.672;23.334;2023-09-19T03:09:03;6.8;;;6.0;;
69917;SDS011;57203;42.672;23.334;2023-09-19T03:10:04;7.5;;;6.1;;
69917;SDS011;57203;42.672;23.334;2023-09-19T03:11:03;10.1;;;6.0;;
69917;SDS011;57203;42.672;23.334;2023-09-19T03:12:04;10.1;;;5.7;;
69917;SDS011;57203;42.672;23.334;2023-09-19T03:13:04;7.0;;;6.7;;
69917;SDS011;57203;42.672;23.334;2023-09-19T03:14:04;12.3;;;6.1;;
69917;SDS011;57203;42.672;23.334;2023-09-19T03:15:04;6.8;;;5.7;;
69917;SDS011;57203;42.672;23.334;2023-09-19T03:16:04;8.0;;;6.3;;
69917;SDS011;57203;42.672;23.334;2023-09-19T03:17:05;11.1;;;6.0;;
69917;SDS011;57203;42.672;23.334;2023-09-19T03:18:05;7.6;;;5.8;;
69917;SDS011;57203;42.672;23.334;2023-09-19T03:19:05;7.6;;;5.4;;
69917;SDS011;57203;42.672;23.334;2023-09-19T03:20:06;7.8;;;5.3;;
69917;SDS011;57203;42.672;23.334;2023-09-19T03:21:05;7.8;;;5.6;;
69917;SDS011;57203;42.672;23.334;2023-09-19T03:22:06;6.6;;;5.8;;
69917;SDS011;57203;42.672;23.334;2023-09-19T03:23:08;6.6;;;5.5;;
69917;SDS011;57203;42.672;23.334;2023-09-19T03:24:06;6.5;;;6.1;;
69917;SDS011;57203;42.672;23.334;2023-09-19T03:25:07;8.2;;;6.0;;
69917;SDS011;57203;42.672;23.334;2023-09-19T03:26:07;8.5;;;6.4;;
69917;SDS011;57203;42.672;23.334;2023-09-19T03:27:08;9.5;;;5.7;;
69917;SDS011;57203;42.672;23.334;2023-09-19T03:29:07;7.2;;;5.9;;
69917;SDS011;57203;42.672;23.334;2023-09-19T03:30:08;7.3;;;5.8;;
69917;SDS011;57203;42.672;23.334;2023-09-19T03:31:08;7.7;;;5.3;;
69917;SDS011;57203;42.672;23.334;2023-09-19T03:32:08;7.7;;;5.9;;
69917;SDS011;57203;42.672;23.334;2023-09-19T03:33:08;7.5;;;5.4;;
69917;SDS011;57203;42.672;23.334;2023-09-19T03:34:08;7.1;;;5.9;;
69917;SDS011;57203;42.672;23.334;2023-09-19T03:35:09;7.6;;;4.7;;
69917;SDS011;57203;42.672;23.334;2023-09-19T03:36:09;8.9;;;5.8;;
69917;SDS011;57203;42.672;23.334;2023-09-19T03:38:09;7.3;;;6.0;;
69917;SDS011;57203;42.672;23.334;2023-09-19T03:39:09;7.7;;;5.2;;
69917;SDS011;57203;42.672;23.334;2023-09-19T03:40:10;7.2;;;5.6;;
69917;SDS011;57203;42.672;23.334;2023-09-19T03:41:10;7.2;;;5.3;;
69917;SDS011;57203;42.672;23.334;2023-09-19T03:42:10;7.7;;;5.7;;
69917;SDS011;57203;42.672;23.334;2023-09-19T03:43:10;7.9;;;5.8;;
69917;SDS011;57203;42.672;23.334;2023-09-19T03:44:10;6.9;;;5.1;;
69917;SDS011;57203;42.672;23.334;2023-09-19T03:45:11;8.4;;;5.5;;
69917;SDS011;57203;42.672;23.334;2023-09-19T03:46:11;6.7;;;5.6;;
69917;SDS011;57203;42.672;23.334;2023-09-19T03:47:11;6.8;;;5.5;;
69917;SDS011;57203;42.672;23.334;2023-09-19T03:48:11;7.9;;;6.0;;
69917;SDS011;57203;42.672;23.334;2023-09-19T03:49:12;9.8;;;5.8;;
69917;SDS011;57203;42.672;23.334;2023-09-19T03:50:12;10.1;;;6.8;;
69917;SDS011;57203;42.672;23.334;2023-09-19T03:51:12;10.1;;;6.2;;
69917;SDS011;57203;42.672;23.334;2023-09-19T03:52:12;8.9;;;6.5;;
69917;SDS011;57203;42.672;23.334;2023-09-19T03:53:12;8.9;;;6.1;;
69917;SDS011;57203;42.672;23.334;2023-09-19T03:54:13;7.6;;;6.5;;
69917;SDS011;57203;42.672;23.334;2023-09-19T03:55:13;10.5;;;6.0;;
69917;SDS011;57203;42.672;23.334;2023-09-19T03:56:13;8.2;;;5.7;;
69917;SDS011;57203;42.672;23.334;2023-09-19T03:57:13;7.0;;;6.5;;
69917;SDS011;57203;42.672;23.334;2023-09-19T03:58:14;11.2;;;6.1;;
69917;SDS011;57203;42.672;23.334;2023-09-19T03:59:14;8.3;;;5.9;;
69917;SDS011;57203;42.672;23.334;2023-09-19T04:00:14;8.6;;;6.2;;
69917;SDS011;57203;42.672;23.334;2023-09-19T04:01:14;8.6;;;5.8;;
69917;SDS011;57203;42.672;23.334;2023-09-19T04:02:14;7.8;;;6.4;;
69917;SDS011;57203;42.672;23.334;2023-09-19T04:03:15;9.8;;;6.1;;
69917;SDS011;57203;42.672;23.334;2023-09-19T04:04:15;9.5;;;5.4;;
69917;SDS011;57203;42.672;23.334;2023-09-19T04:05:15;6.4;;;6.3;;
69917;SDS011;57203;42.672;23.334;2023-09-19T04:06:16;8.5;;;6.6;;
69917;SDS011;57203;42.672;23.334;2023-09-19T04:07:16;8.5;;;6.4;;
69917;SDS011;57203;42.672;23.334;2023-09-19T04:09:16;9.6;;;6.9;;
69917;SDS011;57203;42.672;23.334;2023-09-19T04:10:16;12.2;;;6.7;;
69917;SDS011;57203;42.672;23.334;2023-09-19T04:11:17;12.2;;;7.0;;
69917;SDS011;57203;42.672;23.334;2023-09-19T04:12:17;13.3;;;6.7;;
69917;SDS011;57203;42.672;23.334;2023-09-19T04:13:17;8.0;;;6.6;;
69917;SDS011;57203;42.672;23.334;2023-09-19T04:14:17;11.3;;;7.2;;
69917;SDS011;57203;42.672;23.334;2023-09-19T04:15:17;10.0;;;7.4;;
69917;SDS011;57203;42.672;23.334;2023-09-19T04:16:18;10.0;;;6.7;;
69917;SDS011;57203;42.672;23.334;2023-09-19T04:17:18;9.5;;;7.3;;
69917;SDS011;57203;42.672;23.334;2023-09-19T04:18:18;10.4;;;6.8;;
69917;SDS011;57203;42.672;23.334;2023-09-19T04:19:18;11.4;;;6.4;;
69917;SDS011;57203;42.672;23.334;2023-09-19T04:20:19;11.4;;;7.3;;
69917;SDS011;57203;42.672;23.334;2023-09-19T04:21:19;9.1;;;7.2;;
69917;SDS011;57203;42.672;23.334;2023-09-19T04:22:19;10.8;;;6.7;;
69917;SDS011;57203;42.672;23.334;2023-09-19T04:23:19;11.7;;;6.2;;
69917;SDS011;57203;42.672;23.334;2023-09-19T04:24:20;12.7;;;7.3;;
69917;SDS011;57203;42.672;23.334;2023-09-19T04:25:20;9.5;;;6.4;;
69917;SDS011;57203;42.672;23.334;2023-09-19T04:26:20;9.5;;;6.9;;
69917;SDS011;57203;42.672;23.334;2023-09-19T04:27:20;9.8;;;6.4;;
69917;SDS011;57203;42.672;23.334;2023-09-19T04:28:20;9.3;;;7.0;;
69917;SDS011;57203;42.672;23.334;2023-09-19T04:29:21;9.1;;;6.9;;
69917;SDS011;57203;42.672;23.334;2023-09-19T04:30:21;11.9;;;7.0;;
69917;SDS011;57203;42.672;23.334;2023-09-19T04:31:21;10.7;;;6.4;;
69917;SDS011;57203;42.672;23.334;2023-09-19T04:32:21;9.1;;;6.9;;
69917;SDS011;57203;42.672;23.334;2023-09-19T04:34:22;10.6;;;6.8;;
69917;SDS011;57203;42.672;23.334;2023-09-19T04:35:22;10.4;;;6.9;;
69917;SDS011;57203;42.672;23.334;2023-09-19T04:36:22;9.8;;;6.8;;
69917;SDS011;57203;42.672;23.334;2023-09-19T04:37:22;9.3;;;6.4;;
69917;SDS011;57203;42.672;23.334;2023-09-19T04:38:23;9.2;;;6.2;;
69917;SDS011;57203;42.672;23.334;2023-09-19T04:39:23;7.5;;;6.4;;
69917;SDS011;57203;42.672;23.334;2023-09-19T04:40:23;8.2;;;6.6;;
69917;SDS011;57203;42.672;23.334;2023-09-19T04:41:23;8.2;;;5.6;;
69917;SDS011;57203;42.672;23.334;2023-09-19T04:42:24;7.4;;;6.3;;
69917;SDS011;57203;42.672;23.334;2023-09-19T04:43:24;10.4;;;6.8;;
69917;SDS011;57203;42.672;23.334;2023-09-19T04:44:24;10.3;;;6.3;;
69917;SDS011;57203;42.672;23.334;2023-09-19T04:45:24;9.0;;;6.1;;
69917;SDS011;57203;42.672;23.334;2023-09-19T04:46:24;9.5;;;5.7;;
69917;SDS011;57203;42.672;23.334;2023-09-19T04:48:25;7.5;;;5.6;;
69917;SDS011;57203;42.672;23.334;2023-09-19T04:49:25;7.3;;;6.3;;
69917;SDS011;57203;42.672;23.334;2023-09-19T04:50:25;9.4;;;6.7;;
69917;SDS011;57203;42.672;23.334;2023-09-19T04:51:26;12.3;;;6.2;;
69917;SDS011;57203;42.672;23.334;2023-09-19T04:53:26;9.8;;;6.4;;
69917;SDS011;57203;42.672;23.334;2023-09-19T04:54:26;10.7;;;6.7;;
69917;SDS011;57203;42.672;23.334;2023-09-19T04:55:26;9.2;;;6.0;;
69917;SDS011;57203;42.672;23.334;2023-09-19T04:56:27;9.2;;;5.7;;
69917;SDS011;57203;42.672;23.334;2023-09-19T04:57:27;7.5;;;6.4;;
69917;SDS011;57203;42.672;23.334;2023-09-19T04:58:27;10.5;;;5.5;;
69917;SDS011;57203;42.672;23.334;2023-09-19T04:59:27;7.9;;;5.6;;
69917;SDS011;57203;42.672;23.334;2023-09-19T05:00:27;8.9;;;5.7;;
69917;SDS011;57203;42.672;23.334;2023-09-19T05:01:28;8.9;;;5.8;;
69917;SDS011;57203;42.672;23.334;2023-09-19T05:02:29;9.1;;;5.6;;
69917;SDS011;57203;42.672;23.334;2023-09-19T05:03:28;10.9;;;6.5;;
69917;SDS011;57203;42.672;23.334;2023-09-19T05:04:29;10.9;;;5.7;;
69917;SDS011;57203;42.672;23.334;2023-09-19T05:05:29;8.0;;;5.5;;
69917;SDS011;57203;42.672;23.334;2023-09-19T05:06:29;9.8;;;5.6;;
69917;SDS011;57203;42.672;23.334;2023-09-19T05:07:29;7.8;;;5.5;;
69917;SDS011;57203;42.672;23.334;2023-09-19T05:08:29;7.9;;;5.6;;
69917;SDS011;57203;42.672;23.334;2023-09-19T05:09:29;9.1;;;5.3;;
69917;SDS011;57203;42.672;23.334;2023-09-19T05:10:30;9.1;;;5.5;;
69917;SDS011;57203;42.672;23.334;2023-09-19T05:11:30;7.6;;;5.2;;
69917;SDS011;57203;42.672;23.334;2023-09-19T05:12:31;8.3;;;5.1;;
69917;SDS011;57203;42.672;23.334;2023-09-19T05:13:30;8.0;;;5.3;;
69917;SDS011;57203;42.672;23.334;2023-09-19T05:14:31;8.0;;;4.7;;
69917;SDS011;57203;42.672;23.334;2023-09-19T05:15:31;7.1;;;5.5;;
69917;SDS011;57203;42.672;23.334;2023-09-19T05:16:31;7.4;;;5.2;;
69917;SDS011;57203;42.672;23.334;2023-09-19T05:18:31;6.4;;;5.1;;
69917;SDS011;57203;42.672;23.334;2023-09-19T05:19:32;6.6;;;5.2;;
69917;SDS011;57203;42.672;23.334;2023-09-19T05:20:32;7.0;;;5.5;;
69917;SDS011;57203;42.672;23.334;2023-09-19T05:21:32;8.1;;;5.0;;
69917;SDS011;57203;42.672;23.334;2023-09-19T05:23:33;8.7;;;4.8;;
69917;SDS011;57203;42.672;23.334;2023-09-19T05:24:33;6.2;;;4.9;;
69917;SDS011;57203;42.672;23.334;2023-09-19T05:26:34;9.5;;;4.7;;
69917;SDS011;57203;42.672;23.334;2023-09-19T05:27:34;8.3;;;5.3;;
69917;SDS011;57203;42.672;23.334;2023-09-19T05:28:34;7.9;;;5.1;;
69917;SDS011;57203;42.672;23.334;2023-09-19T05:29:34;7.9;;;4.8;;
69917;SDS011;57203;42.672;23.334;2023-09-19T05:30:35;7.0;;;4.3;;
69917;SDS011;57203;42.672;23.334;2023-09-19T05:31:35;6.3;;;4.9;;
69917;SDS011;57203;42.672;23.334;2023-09-19T05:32:35;7.4;;;5.5;;
69917;SDS011;57203;42.672;23.334;2023-09-19T05:33:35;8.2;;;4.6;;
69917;SDS011;57203;42.672;23.334;2023-09-19T05:34:35;7.2;;;5.0;;
69917;SDS011;57203;42.672;23.334;2023-09-19T05:35:36;7.2;;;5.1;;
69917;SDS011;57203;42.672;23.334;2023-09-19T05:36:36;7.8;;;5.0;;
69917;SDS011;57203;42.672;23.334;2023-09-19T05:37:36;6.7;;;5.5;;
69917;SDS011;57203;42.672;23.334;2023-09-19T05:38:36;7.8;;;4.7;;
69917;SDS011;57203;42.672;23.334;2023-09-19T05:39:36;6.4;;;5.0;;
69917;SDS011;57203;42.672;23.334;2023-09-19T05:40:37;7.0;;;5.4;;
69917;SDS011;57203;42.672;23.334;2023-09-19T05:41:37;9.2;;;4.9;;
69917;SDS011;57203;42.672;23.334;2023-09-19T05:42:37;8.2;;;4.6;;
69917;SDS011;57203;42.672;23.334;2023-09-19T05:43:37;5.7;;;5.2;;
69917;SDS011;57203;42.672;23.334;2023-09-19T05:44:38;9.5;;;5.0;;
69917;SDS011;57203;42.672;23.334;2023-09-19T05:45:38;6.4;;;4.4;;
69917;SDS011;57203;42.672;23.334;2023-09-19T05:46:38;5.6;;;5.2;;
69917;SDS011;57203;42.672;23.334;2023-09-19T05:47:38;8.3;;;4.9;;
69917;SDS011;57203;42.672;23.334;2023-09-19T05:48:38;6.3;;;5.0;;
69917;SDS011;57203;42.672;23.334;2023-09-19T05:49:39;6.3;;;5.2;;
69917;SDS011;57203;42.672;23.334;2023-09-19T05:50:39;8.8;;;4.9;;
69917;SDS011;57203;42.672;23.334;2023-09-19T05:51:39;6.6;;;4.3;;
69917;SDS011;57203;42.672;23.334;2023-09-19T05:52:39;7.6;;;4.5;;
69917;SDS011;57203;42.672;23.334;2023-09-19T05:53:40;7.6;;;4.4;;
69917;SDS011;57203;42.672;23.334;2023-09-19T05:54:40;6.3;;;4.3;;
69917;SDS011;57203;42.672;23.334;2023-09-19T05:55:40;7.9;;;4.7;;
69917;SDS011;57203;42.672;23.334;2023-09-19T05:56:40;7.9;;;4.0;;
69917;SDS011;57203;42.672;23.334;2023-09-19T05:57:41;8.5;;;4.1;;
69917;SDS011;57203;42.672;23.334;2023-09-19T05:58:41;6.2;;;4.2;;
69917;SDS011;57203;42.672;23.334;2023-09-19T05:59:41;5.5;;;4.4;;
69917;SDS011;57203;42.672;23.334;2023-09-19T06:00:41;6.7;;;5.4;;
69917;SDS011;57203;42.672;23.334;2023-09-19T06:01:42;8.3;;;4.6;;
69917;SDS011;57203;42.672;23.334;2023-09-19T06:02:42;6.5;;;5.0;;
69917;SDS011;57203;42.672;23.334;2023-09-19T06:04:42;5.5;;;4.4;;
69917;SDS011;57203;42.672;23.334;2023-09-19T06:05:42;6.0;;;4.2;;
69917;SDS011;57203;42.672;23.334;2023-09-19T06:06:43;6.0;;;4.7;;
69917;SDS011;57203;42.672;23.334;2023-09-19T06:07:43;7.0;;;4.2;;
69917;SDS011;57203;42.672;23.334;2023-09-19T06:08:43;7.0;;;4.1;;
69917;SDS011;57203;42.672;23.334;2023-09-19T06:10:44;6.8;;;3.7;;
69917;SDS011;57203;42.672;23.334;2023-09-19T06:11:44;5.1;;;4.0;;
69917;SDS011;57203;42.672;23.334;2023-09-19T06:14:45;4.6;;;3.9;;
69917;SDS011;57203;42.672;23.334;2023-09-19T06:15:45;5.4;;;4.1;;
69917;SDS011;57203;42.672;23.334;2023-09-19T06:16:45;5.4;;;3.9;;
69917;SDS011;57203;42.672;23.334;2023-09-19T06:17:46;6.5;;;3.6;;
69917;SDS011;57203;42.672;23.334;2023-09-19T06:18:46;5.0;;;3.9;;
69917;SDS011;57203;42.672;23.334;2023-09-19T06:19:46;6.0;;;3.8;;
69917;SDS011;57203;42.672;23.334;2023-09-19T06:20:46;5.5;;;3.6;;
69917;SDS011;57203;42.672;23.334;2023-09-19T06:22:47;4.4;;;3.5;;
69917;SDS011;57203;42.672;23.334;2023-09-19T06:23:47;5.4;;;3.4;;
69917;SDS011;57203;42.672;23.334;2023-09-19T06:24:47;5.1;;;3.5;;
69917;SDS011;57203;42.672;23.334;2023-09-19T06:26:48;4.6;;;3.4;;
69917;SDS011;57203;42.672;23.334;2023-09-19T06:27:48;4.4;;;3.5;;
69917;SDS011;57203;42.672;23.334;2023-09-19T06:28:48;4.4;;;3.3;;
69917;SDS011;57203;42.672;23.334;2023-09-19T06:29:48;5.8;;;3.0;;
69917;SDS011;57203;42.672;23.334;2023-09-19T06:31:49;4.8;;;3.5;;
69917;SDS011;57203;42.672;23.334;2023-09-19T06:32:49;5.0;;;3.3;;
69917;SDS011;57203;42.672;23.334;2023-09-19T06:34:51;5.7;;;3.8;;
69917;SDS011;57203;42.672;23.334;2023-09-19T06:36:51;6.4;;;3.7;;
69917;SDS011;57203;42.672;23.334;2023-09-19T06:37:50;5.1;;;3.1;;
69917;SDS011;57203;42.672;23.334;2023-09-19T06:38:51;4.0;;;3.5;;
69917;SDS011;57203;42.672;23.334;2023-09-19T06:39:51;4.8;;;3.3;;
69917;SDS011;57203;42.672;23.334;2023-09-19T06:40:51;4.3;;;3.6;;
69917;SDS011;57203;42.672;23.334;2023-09-19T06:41:51;4.7;;;3.5;;
69917;SDS011;57203;42.672;23.334;2023-09-19T06:42:52;5.3;;;3.6;;
69917;SDS011;57203;42.672;23.334;2023-09-19T06:43:52;5.3;;;3.1;;
69917;SDS011;57203;42.672;23.334;2023-09-19T06:44:52;4.6;;;3.7;;
69917;SDS011;57203;42.672;23.334;2023-09-19T06:45:53;6.0;;;3.2;;
69917;SDS011;57203;42.672;23.334;2023-09-19T06:46:52;5.7;;;3.0;;
69917;SDS011;57203;42.672;23.334;2023-09-19T06:47:53;4.2;;;3.3;;